x

San Francisco - 18nm West Of San Francisco, Ca (46026) Wave Buoy

9:50am - Mon 30th Mar 2015 All times are PDT. -7 hours from GMT.

  • Sig Wave height 9.2ft
  • Swell Direction
  • Peak Period 12s
  • Average Period 7s
  • Wind
    22mph, 29mph gusts
  • Sea Temp 53°f
  • Air Temp 53°f
  • Sea Pressure 1018.5mb
  • San Francisco - 18nm West Of San Francisco, Ca
  • San Francisco - 18nm West Of San Francisco, Ca

More Historic Weather Station data

Upgrade to MSW Pro to gain access to the past 30 days of data for over 8000 Wavebouys and Weather Stations around the globe.

Join Pro

Comparision Forecast

View Surf forecast
   
Mon 03/30 9:50am 9ft 12s 7s 22 29 mph 1018.5mb 53f 53f
8:50am 10ft 12s 8s 18 22 mph 1018.1mb 53f 53f
7:50am 9.5ft 17s 7s 20 25 mph 1017.4mb 53f 53f
6:50am 9ft 12s 7s 16 20 mph 1017mb 53f 53f
5:50am 9ft 12s 7s 20 25 mph 1016.9mb 53f 53f
4:50am 9.5ft 12s 8s 18 22 mph 1016.8mb 53f 53f
3:50am 9ft 13s 8s 16 20 mph 1017mb 53f 54f
2:50am 9.5ft 13s 8s 13 16 mph 1017.4mb 53f 54f
1:50am 10ft 12s 8s 11 13 mph 1017.6mb 53f 53f
12:50am 9.5ft 13s 8s 11 13 mph 1017.8mb 53f 54f
Sun 03/29 11:50pm 10ft 12s 8s 11 13 mph 1017.8mb 53f 54f
10:50pm 9ft 10s 8s 11 13 mph 1018mb 53f 55f
9:50pm 9.5ft 17s 8s 13 16 mph 1017.7mb 53f 55f
8:50pm 8ft 11s 7s 13 16 mph 1017.4mb 53f 55f
7:50pm 8ft 11s 8s 11 16 mph 1017.2mb 54f 54f
6:50pm 8ft 11s 7s 16 20 mph 1017.2mb 54f 55f
5:50pm 7.5ft 10s 7s 16 18 mph 1017.6mb 54f 55f
4:50pm 8ft 9s 7s 16 20 mph 1017.8mb 54f 55f
3:50pm 7.5ft 10s 7s 18 22 mph 1018.1mb 54f 54f
2:50pm 7ft 8s 7s 18 20 mph 1018.6mb 54f 54f
1:50pm 7.5ft 11s 7s 16 20 mph 1019.3mb 54f 54f
12:50pm 7ft 8s 7s 18 22 mph 1019.9mb 54f 54f
11:50am 7.5ft 8s 7s 13 16 mph 1020.6mb 53f 53f
10:50am 8ft 10s 7s 7 9 mph 1020.7mb 53f 53f
9:50am 8.5ft 8s 7s 11 13 mph 1020.5mb 53f 52f
8:50am 8ft 9s 7s 11 13 mph 1020.3mb 53f 53f
7:50am 9ft 9s 7s 13 16 mph 1020.2mb 53f 53f
6:50am 9ft 8s 7s 13 18 mph 1019.7mb 53f 53f
5:50am 9ft 8s 7s 18 22 mph 1019.1mb 53f 53f
4:50am 9.5ft 8s 7s 20 25 mph 1019.6mb 53f 53f
3:50am 9ft 10s 7s 20 25 mph 1020.1mb 53f 54f
2:50am 8.5ft 8s 7s 20 25 mph 1020.2mb 53f 54f
1:50am 9.5ft 8s 7s 18 20 mph 1020.2mb 53f 54f
12:50am 10ft 8s 7s 18 22 mph 1020.4mb 53f 54f
Sat 03/28 11:50pm 10ft 9s 7s 22 27 mph 1020.3mb 53f 54f
10:50pm 9.5ft 9s 7s 22 27 mph 1019.8mb 54f 54f
9:50pm 11ft 8s 7s 27 31 mph 1019.9mb 54f 54f
8:50pm 9.5ft 9s 7s 27 34 mph 1019.6mb 54f 54f
7:50pm 10ft 8s 7s 22 27 mph 1019.5mb 54f 54f
6:50pm 9ft 8s 7s 22 27 mph 1019.4mb 54f 55f
5:50pm 8ft 8s 7s 22 27 mph 1019.6mb 54f 55f
4:50pm 8ft 8s 7s 25 29 mph 1019.6mb 54f 55f
3:50pm 8ft 8s 7s 20 25 mph 1020.4mb 54f 55f
2:50pm 8.5ft 13s 7s 22 27 mph 1020.8mb 54f 55f
1:50pm 8ft 8s 7s 20 22 mph 1021.7mb 54f 55f
12:50pm 7.5ft 8s 6s 20 25 mph 1022.4mb 54f 55f
11:50am 8.5ft 8s 7s 22 25 mph 1022.8mb 55f 54f
10:50am 9ft 8s 7s 18 22 mph 1023.1mb 55f 54f
9:50am 8ft 8s 7s 20 25 mph 1022.9mb 55f 54f
8:50am 8.5ft 8s 7s 18 22 mph 1022.4mb 55f 54f
7:50am 9ft 8s 7s 20 27 mph 1021.7mb 55f 54f
6:50am 8ft 8s 6s 20 25 mph 1021.2mb 55f 54f
5:50am 8ft 8s 6s 18 22 mph 1021mb 55f 54f
4:50am 8ft 7s 6s 22 27 mph 1020.8mb 54f 55f
3:50am 8ft 13s 6s 22 29 mph 1020.9mb 54f 55f
2:50am 7ft 13s 6s 22 29 mph 1021.4mb 54f 55f
1:50am 7.5ft 12s 6s 22 27 mph 1021.9mb 54f 55f
12:50am 7ft 11s 6s 22 27 mph 1022mb 54f 55f
Fri 03/27 11:50pm 8.5ft 13s 7s 20 22 mph 1022mb 55f 55f
10:50pm 9ft 7s 6s 20 25 mph 1022mb 55f 55f
9:50pm 9.5ft 11s 6s 25 31 mph 1021.4mb 55f 56f
8:50pm 7ft 11s 7s 22 25 mph 1021.5mb 55f 56f
7:50pm 7ft 14s 7s 18 22 mph 1021.3mb 55f 55f
6:50pm 7ft 14s 7s 20 27 mph 1021.3mb 55f 55f
5:50pm 6ft 11s 6s 20 25 mph 1021.1mb 55f 55f
4:50pm 6.5ft 14s 7s 22 27 mph 1021mb 55f 55f
3:50pm 6ft 11s 7s 20 25 mph 1021.3mb 55f 54f
2:50pm 6.5ft 11s 7s 18 25 mph 1021.8mb 55f 54f
1:50pm 6ft 11s 7s 20 25 mph 1022.3mb 55f 54f
12:50pm 6ft 11s 7s 18 20 mph 1022.6mb 55f 54f
11:50am 5.5ft 11s 7s 16 18 mph 1022.8mb 55f 53f
10:50am 6ft 11s 8s 13 16 mph 1022.8mb 55f 53f
9:50am 5ft 11s 8s 11 16 mph 1022.2mb 55f 53f
8:50am 6ft 11s 8s 9 13 mph 1021.5mb 55f 52f
7:50am 5.5ft 11s 8s 11 16 mph 1021mb 55f 52f
6:50am 5ft 11s 7s 9 11 mph 1020.3mb 55f 51f
5:50am 5ft 11s 7s 9 13 mph 1020.1mb 55f 51f
4:50am 5ft 11s 8s 11 13 mph 1019.9mb 55f 51f
3:50am 5ft 11s 8s 11 13 mph 1019.9mb 55f 51f
2:50am 6ft 11s 8s 9 13 mph 1020.2mb 55f 52f
1:50am 5.5ft 11s 8s 9 11 mph 1020.5mb 55f 51f
12:50am 5ft 12s 8s 7 9 mph 1020.5mb 55f 51f
Thu 03/26 11:50pm 5.5ft 12s 7s 9 13 mph 1020.5mb 55f 52f
10:50pm 5ft 12s 7s 11 13 mph 1020.4mb 56f 52f
9:50pm 7ft 11s 8s 13 18 mph 1019.9mb 56f 52f
8:50pm 6ft 11s 7s 13 16 mph 1019.3mb 56f 52f
7:50pm 6ft 11s 7s 16 18 mph 1018.8mb 56f 53f
6:50pm 6.5ft 11s 7s 18 20 mph 1018.6mb 56f 53f